Hickory Hill, Missouri
Current Conditions -  °F | °C
As of 3:53 AM on Saturday 22 Nov 2014 (Local Time) from KJEF Reporting Station
Overcast Overcast  
Wind Chill: 51°   Ceiling: 3200
Heat Index: 51°   Visibility: 10mi
Dew Point: 44°   Wind: 5mph
Humidity: 77%   Direction: 170°S
Pressure: 30.1"   Gusts: NA
Location:  38.3775°N, 92.3101°W
Report Text: KJEF 220953Z AUTO 17004KT 10SM OVC032 11/07 A3010 RMK AO2 SLP184 T01060067
Loading
Personal Weather Stations






























Interactive Weather Map New forecast layout! Learn more

10-Day Weather Forecast

Advertisements
Track Severe Weather on mobile